sensor_id;sensor_type;location;lat;lon;timestamp;pressure;altitude;pressure_sealevel;temperature;humidity
56632;BME280;42503;39.928;-75.152;2023-04-08T00:07:43;102662.94;;;22.78;33.70
56632;BME280;42503;39.928;-75.152;2023-04-08T00:17:45;102654.88;;;22.65;33.89
56632;BME280;42503;39.928;-75.152;2023-04-08T00:27:46;102664.53;;;22.74;33.40
56632;BME280;42503;39.928;-75.152;2023-04-08T00:37:48;102674.91;;;22.62;33.62
56632;BME280;42503;39.928;-75.152;2023-04-08T00:47:49;102690.78;;;22.62;33.85
56632;BME280;42503;39.928;-75.152;2023-04-08T00:57:52;102736.25;;;22.74;33.90
56632;BME280;42503;39.928;-75.152;2023-04-08T01:07:54;102734.78;;;22.71;33.55
56632;BME280;42503;39.928;-75.152;2023-04-08T01:17:58;102703.06;;;22.61;33.48
56632;BME280;42503;39.928;-75.152;2023-04-08T01:28:03;102733.59;;;22.67;33.59
56632;BME280;42503;39.928;-75.152;2023-04-08T01:38:13;102769.63;;;22.69;33.48
56632;BME280;42503;39.928;-75.152;2023-04-08T01:48:14;102739.47;;;22.54;33.71
56632;BME280;42503;39.928;-75.152;2023-04-08T01:58:19;102782.75;;;22.68;33.49
56632;BME280;42503;39.928;-75.152;2023-04-08T02:08:21;102762.97;;;22.58;33.52
56632;BME280;42503;39.928;-75.152;2023-04-08T02:18:25;102757.31;;;22.53;33.87
56632;BME280;42503;39.928;-75.152;2023-04-08T02:28:29;102760.72;;;22.55;33.79
56632;BME280;42503;39.928;-75.152;2023-04-08T02:38:33;102781.31;;;22.54;33.79
56632;BME280;42503;39.928;-75.152;2023-04-08T02:48:35;102782.88;;;22.62;34.26
56632;BME280;42503;39.928;-75.152;2023-04-08T02:58:39;102804.75;;;22.81;34.26
56632;BME280;42503;39.928;-75.152;2023-04-08T03:08:44;102819.91;;;22.97;34.18
56632;BME280;42503;39.928;-75.152;2023-04-08T03:18:45;102819.41;;;23.00;34.48
56632;BME280;42503;39.928;-75.152;2023-04-08T03:28:46;102805.31;;;22.95;33.92
56632;BME280;42503;39.928;-75.152;2023-04-08T03:38:47;102821.22;;;22.95;33.83
56632;BME280;42503;39.928;-75.152;2023-04-08T03:48:49;102836.28;;;22.94;34.73
56632;BME280;42503;39.928;-75.152;2023-04-08T03:58:50;102856.19;;;22.86;33.93
56632;BME280;42503;39.928;-75.152;2023-04-08T04:08:53;102885.84;;;22.63;31.19
56632;BME280;42503;39.928;-75.152;2023-04-08T04:18:55;102846.03;;;22.27;32.09
56632;BME280;42503;39.928;-75.152;2023-04-08T04:28:56;102901.19;;;22.25;30.71
56632;BME280;42503;39.928;-75.152;2023-04-08T04:38:58;102885.88;;;21.93;29.85
56632;BME280;42503;39.928;-75.152;2023-04-08T04:48:59;102900.66;;;21.93;30.70
56632;BME280;42503;39.928;-75.152;2023-04-08T04:59:03;102907.09;;;21.94;30.82
56632;BME280;42503;39.928;-75.152;2023-04-08T05:09:05;102910.47;;;21.84;30.58
56632;BME280;42503;39.928;-75.152;2023-04-08T05:19:07;102924.41;;;21.84;30.83
56632;BME280;42503;39.928;-75.152;2023-04-08T05:29:08;102914.94;;;21.73;30.62
56632;BME280;42503;39.928;-75.152;2023-04-08T05:39:09;102953.31;;;21.71;30.38
56632;BME280;42503;39.928;-75.152;2023-04-08T05:49:13;102926.59;;;21.40;30.09
56632;BME280;42503;39.928;-75.152;2023-04-08T05:59:19;102957.41;;;21.57;29.39
56632;BME280;42503;39.928;-75.152;2023-04-08T06:09:21;102911.97;;;21.45;30.68
56632;BME280;42503;39.928;-75.152;2023-04-08T06:19:22;102904.34;;;21.52;30.93
56632;BME280;42503;39.928;-75.152;2023-04-08T06:29:24;102931.09;;;21.53;29.77
56632;BME280;42503;39.928;-75.152;2023-04-08T06:39:26;102968.53;;;21.45;29.73
56632;BME280;42503;39.928;-75.152;2023-04-08T06:49:27;102942.66;;;21.08;29.28
56632;BME280;42503;39.928;-75.152;2023-04-08T06:59:30;102971.38;;;21.20;30.25
56632;BME280;42503;39.928;-75.152;2023-04-08T07:09:31;102992.50;;;21.28;30.00
56632;BME280;42503;39.928;-75.152;2023-04-08T07:19:33;102939.94;;;21.01;29.81
56632;BME280;42503;39.928;-75.152;2023-04-08T07:29:34;102891.19;;;20.62;30.11
56632;BME280;42503;39.928;-75.152;2023-04-08T07:39:35;103002.16;;;21.25;30.67
56632;BME280;42503;39.928;-75.152;2023-04-08T07:49:37;103004.78;;;21.20;30.10
56632;BME280;42503;39.928;-75.152;2023-04-08T07:59:38;103004.03;;;21.13;29.60
56632;BME280;42503;39.928;-75.152;2023-04-08T08:09:40;103008.38;;;21.09;29.89
56632;BME280;42503;39.928;-75.152;2023-04-08T08:19:41;103027.31;;;21.00;29.05
56632;BME280;42503;39.928;-75.152;2023-04-08T08:29:43;103049.88;;;20.92;29.15
56632;BME280;42503;39.928;-75.152;2023-04-08T08:39:44;103076.25;;;20.90;29.07
56632;BME280;42503;39.928;-75.152;2023-04-08T08:49:46;103063.59;;;20.69;29.39
56632;BME280;42503;39.928;-75.152;2023-04-08T08:59:48;103074.63;;;20.75;29.78
56632;BME280;42503;39.928;-75.152;2023-04-08T09:09:50;103083.63;;;20.77;29.97
56632;BME280;42503;39.928;-75.152;2023-04-08T09:20:09;103133.06;;;20.75;28.78
56632;BME280;42503;39.928;-75.152;2023-04-08T09:30:15;103126.22;;;20.53;28.57
56632;BME280;42503;39.928;-75.152;2023-04-08T09:40:16;103145.84;;;20.58;28.53
56632;BME280;42503;39.928;-75.152;2023-04-08T09:50:19;103154.47;;;20.50;28.55
56632;BME280;42503;39.928;-75.152;2023-04-08T10:00:39;103166.25;;;20.45;28.93
56632;BME280;42503;39.928;-75.152;2023-04-08T10:10:50;103190.31;;;20.65;29.56
56632;BME280;42503;39.928;-75.152;2023-04-08T10:20:51;103186.50;;;20.59;29.20
56632;BME280;42503;39.928;-75.152;2023-04-08T10:30:54;103198.31;;;20.48;28.44
56632;BME280;42503;39.928;-75.152;2023-04-08T10:40:56;103212.06;;;20.36;27.68
56632;BME280;42503;39.928;-75.152;2023-04-08T10:51:02;103222.66;;;20.14;28.10
56632;BME280;42503;39.928;-75.152;2023-04-08T11:01:09;103249.78;;;20.25;27.96
56632;BME280;42503;39.928;-75.152;2023-04-08T11:11:10;103236.13;;;20.17;28.19
56632;BME280;42503;39.928;-75.152;2023-04-08T11:21:12;103233.63;;;20.02;27.54
56632;BME280;42503;39.928;-75.152;2023-04-08T11:31:13;103250.09;;;19.91;26.94
56632;BME280;42503;39.928;-75.152;2023-04-08T11:41:15;103276.59;;;20.00;29.54
56632;BME280;42503;39.928;-75.152;2023-04-08T11:51:17;103256.91;;;20.01;30.06
56632;BME280;42503;39.928;-75.152;2023-04-08T12:01:19;103268.88;;;20.02;30.89
56632;BME280;42503;39.928;-75.152;2023-04-08T12:11:22;103296.19;;;20.18;31.45
56632;BME280;42503;39.928;-75.152;2023-04-08T12:21:23;103338.06;;;20.37;31.24
56632;BME280;42503;39.928;-75.152;2023-04-08T12:31:25;103267.56;;;20.11;31.54
56632;BME280;42503;39.928;-75.152;2023-04-08T12:41:28;103313.63;;;20.45;31.51
56632;BME280;42503;39.928;-75.152;2023-04-08T12:51:29;103334.13;;;20.64;31.61
56632;BME280;42503;39.928;-75.152;2023-04-08T13:01:30;103313.56;;;20.65;31.54
56632;BME280;42503;39.928;-75.152;2023-04-08T13:11:35;103323.38;;;20.74;31.55
56632;BME280;42503;39.928;-75.152;2023-04-08T13:21:36;103298.78;;;20.71;31.81
56632;BME280;42503;39.928;-75.152;2023-04-08T13:31:40;103321.59;;;20.87;31.54
56632;BME280;42503;39.928;-75.152;2023-04-08T13:41:42;103304.47;;;20.83;31.73
56632;BME280;42503;39.928;-75.152;2023-04-08T13:51:46;103339.47;;;21.04;31.99
56632;BME280;42503;39.928;-75.152;2023-04-08T14:01:48;103245.94;;;20.65;31.79
56632;BME280;42503;39.928;-75.152;2023-04-08T14:11:53;103352.66;;;21.15;32.39
56632;BME280;42503;39.928;-75.152;2023-04-08T14:21:56;103335.50;;;21.18;32.60
56632;BME280;42503;39.928;-75.152;2023-04-08T14:31:57;103355.00;;;21.18;32.81
56632;BME280;42503;39.928;-75.152;2023-04-08T14:42:01;103327.88;;;21.07;32.51
56632;BME280;42503;39.928;-75.152;2023-04-08T14:52:02;103330.38;;;21.15;33.03
56632;BME280;42503;39.928;-75.152;2023-04-08T15:02:04;103330.13;;;21.23;32.76
56632;BME280;42503;39.928;-75.152;2023-04-08T15:12:05;103326.91;;;21.26;33.14
56632;BME280;42503;39.928;-75.152;2023-04-08T15:22:07;103305.22;;;21.28;33.13
56632;BME280;42503;39.928;-75.152;2023-04-08T15:32:08;103301.19;;;21.24;33.20
56632;BME280;42503;39.928;-75.152;2023-04-08T15:42:10;103273.34;;;21.24;33.36
56632;BME280;42503;39.928;-75.152;2023-04-08T15:52:11;103278.66;;;21.33;33.33
56632;BME280;42503;39.928;-75.152;2023-04-08T16:02:13;103283.03;;;21.47;33.28
56632;BME280;42503;39.928;-75.152;2023-04-08T16:12:14;103252.16;;;21.48;33.41
56632;BME280;42503;39.928;-75.152;2023-04-08T16:22:16;103229.50;;;21.45;33.17
56632;BME280;42503;39.928;-75.152;2023-04-08T16:32:18;103223.78;;;21.58;33.29
56632;BME280;42503;39.928;-75.152;2023-04-08T16:42:19;103210.47;;;21.60;33.10
56632;BME280;42503;39.928;-75.152;2023-04-08T16:52:20;103221.38;;;21.62;32.77
56632;BME280;42503;39.928;-75.152;2023-04-08T17:02:22;103216.84;;;21.67;32.95
56632;BME280;42503;39.928;-75.152;2023-04-08T17:12:23;103172.84;;;21.69;33.38
56632;BME280;42503;39.928;-75.152;2023-04-08T17:22:25;103168.69;;;21.78;32.89
56632;BME280;42503;39.928;-75.152;2023-04-08T17:32:29;103162.66;;;21.81;32.63
56632;BME280;42503;39.928;-75.152;2023-04-08T17:42:33;103135.69;;;21.75;33.04
56632;BME280;42503;39.928;-75.152;2023-04-08T17:52:35;103163.69;;;21.99;33.51
56632;BME280;42503;39.928;-75.152;2023-04-08T18:02:36;103128.16;;;21.94;33.74
56632;BME280;42503;39.928;-75.152;2023-04-08T18:12:38;103123.59;;;22.00;34.36
56632;BME280;42503;39.928;-75.152;2023-04-08T18:22:39;103085.22;;;21.83;34.25
56632;BME280;42503;39.928;-75.152;2023-04-08T18:32:43;103095.78;;;22.12;34.79
56632;BME280;42503;39.928;-75.152;2023-04-08T18:42:48;103058.31;;;21.59;30.67
56632;BME280;42503;39.928;-75.152;2023-04-08T18:52:49;103038.19;;;21.20;28.64
56632;BME280;42503;39.928;-75.152;2023-04-08T19:02:50;103024.06;;;21.22;26.55
56632;BME280;42503;39.928;-75.152;2023-04-08T19:12:52;102992.81;;;20.83;27.26
56632;BME280;42503;39.928;-75.152;2023-04-08T19:22:53;102993.81;;;20.89;25.87
56632;BME280;42503;39.928;-75.152;2023-04-08T19:32:56;102885.19;;;20.22;28.19
56632;BME280;42503;39.928;-75.152;2023-04-08T19:42:58;102963.31;;;20.57;24.96
56632;BME280;42503;39.928;-75.152;2023-04-08T19:52:59;102942.97;;;20.81;23.83
56632;BME280;42503;39.928;-75.152;2023-04-08T20:03:01;102946.19;;;20.97;23.85
56632;BME280;42503;39.928;-75.152;2023-04-08T20:13:02;102944.03;;;20.99;24.83
56632;BME280;42503;39.928;-75.152;2023-04-08T20:23:06;102924.88;;;20.91;25.55
56632;BME280;42503;39.928;-75.152;2023-04-08T20:33:10;102900.34;;;20.44;24.02
56632;BME280;42503;39.928;-75.152;2023-04-08T20:43:11;102891.44;;;20.36;22.02
56632;BME280;42503;39.928;-75.152;2023-04-08T20:53:13;102918.16;;;20.37;24.94
56632;BME280;42503;39.928;-75.152;2023-04-08T21:03:19;102929.34;;;20.55;25.48
56632;BME280;42503;39.928;-75.152;2023-04-08T21:13:26;102919.91;;;20.56;24.80
56632;BME280;42503;39.928;-75.152;2023-04-08T21:23:36;102925.88;;;20.16;22.77
56632;BME280;42503;39.928;-75.152;2023-04-08T21:33:40;102913.69;;;20.36;22.45
56632;BME280;42503;39.928;-75.152;2023-04-08T21:43:42;102935.16;;;20.47;24.64
56632;BME280;42503;39.928;-75.152;2023-04-08T21:53:43;102924.34;;;20.39;24.95
56632;BME280;42503;39.928;-75.152;2023-04-08T22:03:48;102905.19;;;20.30;22.79
56632;BME280;42503;39.928;-75.152;2023-04-08T22:13:49;102923.63;;;20.50;22.27
56632;BME280;42503;39.928;-75.152;2023-04-08T22:23:50;102909.75;;;20.43;22.37
56632;BME280;42503;39.928;-75.152;2023-04-08T22:33:54;102906.31;;;20.48;20.78
56632;BME280;42503;39.928;-75.152;2023-04-08T22:43:56;102902.72;;;20.41;20.57
56632;BME280;42503;39.928;-75.152;2023-04-08T22:53:57;102890.06;;;20.26;20.47
56632;BME280;42503;39.928;-75.152;2023-04-08T23:03:59;102902.41;;;20.30;22.95
56632;BME280;42503;39.928;-75.152;2023-04-08T23:14:00;102895.38;;;20.28;21.09
56632;BME280;42503;39.928;-75.152;2023-04-08T23:24:01;102930.34;;;20.17;21.79
56632;BME280;42503;39.928;-75.152;2023-04-08T23:34:03;102824.44;;;19.25;22.36
56632;BME280;42503;39.928;-75.152;2023-04-08T23:44:04;102939.31;;;19.63;22.60
56632;BME280;42503;39.928;-75.152;2023-04-08T23:54:08;102952.22;;;19.44;23.00
